sensor_id;sensor_type;location;lat;lon;timestamp;pressure;altitude;pressure_sealevel;temperature;humidity
70206;BME280;57593;55.896;37.396;2022-12-20T00:00:00;100502.91;;;-3.02;100.00
70206;BME280;57593;55.896;37.396;2022-12-20T00:00:31;100506.06;;;-3.00;100.00
70206;BME280;57593;55.896;37.396;2022-12-20T00:01:16;100500.25;;;-2.95;100.00
70206;BME280;57593;55.896;37.396;2022-12-20T00:01:47;100498.16;;;-3.05;100.00
70206;BME280;57593;55.896;37.396;2022-12-20T00:02:17;100494.88;;;-3.19;100.00
70206;BME280;57593;55.896;37.396;2022-12-20T00:02:48;100499.91;;;-3.24;100.00
70206;BME280;57593;55.896;37.396;2022-12-20T00:03:19;100496.28;;;-3.23;100.00
70206;BME280;57593;55.896;37.396;2022-12-20T00:03:51;100492.88;;;-3.17;100.00
70206;BME280;57593;55.896;37.396;2022-12-20T00:04:22;100496.25;;;-3.16;100.00
70206;BME280;57593;55.896;37.396;2022-12-20T00:04:53;100502.00;;;-3.14;100.00
70206;BME280;57593;55.896;37.396;2022-12-20T00:05:23;100500.19;;;-3.14;100.00
70206;BME280;57593;55.896;37.396;2022-12-20T00:05:54;100497.72;;;-3.27;100.00
70206;BME280;57593;55.896;37.396;2022-12-20T00:06:25;100497.81;;;-3.15;100.00
70206;BME280;57593;55.896;37.396;2022-12-20T00:06:56;100493.44;;;-3.15;100.00
70206;BME280;57593;55.896;37.396;2022-12-20T00:07:26;100499.63;;;-3.16;100.00
70206;BME280;57593;55.896;37.396;2022-12-20T00:07:57;100514.78;;;-3.19;100.00
70206;BME280;57593;55.896;37.396;2022-12-20T00:08:28;100509.81;;;-3.21;100.00
70206;BME280;57593;55.896;37.396;2022-12-20T00:09:00;100517.38;;;-3.26;100.00
70206;BME280;57593;55.896;37.396;2022-12-20T00:09:31;100510.81;;;-3.22;100.00
70206;BME280;57593;55.896;37.396;2022-12-20T00:10:02;100500.03;;;-3.19;100.00
70206;BME280;57593;55.896;37.396;2022-12-20T00:10:40;100510.66;;;-3.34;100.00
70206;BME280;57593;55.896;37.396;2022-12-20T00:11:11;100506.06;;;-3.25;100.00
70206;BME280;57593;55.896;37.396;2022-12-20T00:11:42;100510.59;;;-3.20;100.00
70206;BME280;57593;55.896;37.396;2022-12-20T00:12:13;100516.34;;;-3.18;100.00
70206;BME280;57593;55.896;37.396;2022-12-20T00:12:43;100517.97;;;-3.24;100.00
70206;BME280;57593;55.896;37.396;2022-12-20T00:13:14;100509.47;;;-3.31;100.00
70206;BME280;57593;55.896;37.396;2022-12-20T00:13:45;100512.97;;;-3.19;100.00
70206;BME280;57593;55.896;37.396;2022-12-20T00:14:16;100504.47;;;-3.26;100.00
70206;BME280;57593;55.896;37.396;2022-12-20T00:14:47;100512.84;;;-3.31;100.00
70206;BME280;57593;55.896;37.396;2022-12-20T00:15:17;100517.97;;;-3.24;100.00
70206;BME280;57593;55.896;37.396;2022-12-20T00:15:48;100514.09;;;-3.08;100.00
70206;BME280;57593;55.896;37.396;2022-12-20T00:16:24;100523.19;;;-3.05;100.00
70206;BME280;57593;55.896;37.396;2022-12-20T00:16:55;100508.84;;;-3.01;100.00
70206;BME280;57593;55.896;37.396;2022-12-20T00:17:26;100506.53;;;-3.10;100.00
70206;BME280;57593;55.896;37.396;2022-12-20T00:17:57;100513.28;;;-3.09;100.00
70206;BME280;57593;55.896;37.396;2022-12-20T00:18:28;100504.16;;;-3.11;100.00
70206;BME280;57593;55.896;37.396;2022-12-20T00:19:01;100511.50;;;-3.08;100.00
70206;BME280;57593;55.896;37.396;2022-12-20T00:19:31;100505.91;;;-3.05;100.00
70206;BME280;57593;55.896;37.396;2022-12-20T00:20:02;100510.38;;;-3.19;100.00
70206;BME280;57593;55.896;37.396;2022-12-20T00:20:34;100511.78;;;-3.16;100.00
70206;BME280;57593;55.896;37.396;2022-12-20T00:21:06;100501.84;;;-3.19;100.00
70206;BME280;57593;55.896;37.396;2022-12-20T00:21:37;100495.31;;;-3.22;100.00
70206;BME280;57593;55.896;37.396;2022-12-20T00:22:08;100503.00;;;-3.15;100.00
70206;BME280;57593;55.896;37.396;2022-12-20T00:22:39;100503.00;;;-3.15;100.00
70206;BME280;57593;55.896;37.396;2022-12-20T00:23:09;100493.06;;;-3.18;100.00
70206;BME280;57593;55.896;37.396;2022-12-20T00:23:40;100487.69;;;-3.17;100.00
70206;BME280;57593;55.896;37.396;2022-12-20T00:24:11;100489.44;;;-3.11;100.00
70206;BME280;57593;55.896;37.396;2022-12-20T00:24:42;100490.66;;;-3.13;100.00
70206;BME280;57593;55.896;37.396;2022-12-20T00:25:12;100489.84;;;-3.14;100.00
70206;BME280;57593;55.896;37.396;2022-12-20T00:25:43;100496.69;;;-3.19;100.00
70206;BME280;57593;55.896;37.396;2022-12-20T00:26:16;100492.66;;;-3.15;100.00
70206;BME280;57593;55.896;37.396;2022-12-20T00:26:48;100489.84;;;-3.14;100.00
70206;BME280;57593;55.896;37.396;2022-12-20T00:27:18;100497.81;;;-3.15;100.00
70206;BME280;57593;55.896;37.396;2022-12-20T00:27:49;100490.66;;;-3.13;100.00
70206;BME280;57593;55.896;37.396;2022-12-20T00:28:20;100487.06;;;-3.12;100.00
70206;BME280;57593;55.896;37.396;2022-12-20T00:28:50;100478.59;;;-3.19;100.00
70206;BME280;57593;55.896;37.396;2022-12-20T00:29:21;100492.78;;;-3.29;100.00
70206;BME280;57593;55.896;37.396;2022-12-20T00:29:52;100498.16;;;-3.37;100.00
70206;BME280;57593;55.896;37.396;2022-12-20T00:30:22;100486.59;;;-3.28;100.00
70206;BME280;57593;55.896;37.396;2022-12-20T00:30:54;100481.84;;;-3.31;100.00
70206;BME280;57593;55.896;37.396;2022-12-20T00:31:26;100481.97;;;-3.19;100.00
70206;BME280;57593;55.896;37.396;2022-12-20T00:31:57;100490.56;;;-3.25;100.00
70206;BME280;57593;55.896;37.396;2022-12-20T00:32:28;100493.50;;;-3.21;100.00
70206;BME280;57593;55.896;37.396;2022-12-20T00:32:59;100492.00;;;-3.36;100.00
70206;BME280;57593;55.896;37.396;2022-12-20T00:33:29;100489.59;;;-3.31;100.00
70206;BME280;57593;55.896;37.396;2022-12-20T00:34:00;100482.66;;;-3.37;100.00
70206;BME280;57593;55.896;37.396;2022-12-20T00:34:31;100492.28;;;-3.44;100.00
70206;BME280;57593;55.896;37.396;2022-12-20T00:35:02;100488.84;;;-3.38;100.00
70206;BME280;57593;55.896;37.396;2022-12-20T00:35:33;100490.41;;;-3.30;100.00
70206;BME280;57593;55.896;37.396;2022-12-20T00:36:05;100486.47;;;-3.39;100.00
70206;BME280;57593;55.896;37.396;2022-12-20T00:36:38;100475.34;;;-3.40;100.00
70206;BME280;57593;55.896;37.396;2022-12-20T00:37:11;100472.53;;;-3.32;100.00
70206;BME280;57593;55.896;37.396;2022-12-20T00:37:43;100471.50;;;-3.31;100.00
70206;BME280;57593;55.896;37.396;2022-12-20T00:38:14;100476.84;;;-3.26;100.00
70206;BME280;57593;55.896;37.396;2022-12-20T00:38:46;100489.91;;;-3.20;100.00
70206;BME280;57593;55.896;37.396;2022-12-20T00:39:16;100474.09;;;-3.31;100.00
70206;BME280;57593;55.896;37.396;2022-12-20T00:39:48;100479.84;;;-3.29;100.00
70206;BME280;57593;55.896;37.396;2022-12-20T00:40:18;100478.59;;;-3.19;100.00
70206;BME280;57593;55.896;37.396;2022-12-20T00:41:12;100469.53;;;-3.10;100.00
70206;BME280;57593;55.896;37.396;2022-12-20T00:41:43;100464.75;;;-3.07;100.00
70206;BME280;57593;55.896;37.396;2022-12-20T00:42:14;100458.84;;;-3.14;100.00
70206;BME280;57593;55.896;37.396;2022-12-20T00:42:45;100452.91;;;-3.14;100.00
70206;BME280;57593;55.896;37.396;2022-12-20T00:43:16;100450.47;;;-3.09;100.00
70206;BME280;57593;55.896;37.396;2022-12-20T00:43:47;100443.91;;;-3.12;100.00
70206;BME280;57593;55.896;37.396;2022-12-20T00:44:17;100440.34;;;-3.11;100.00
70206;BME280;57593;55.896;37.396;2022-12-20T00:44:48;100441.66;;;-3.27;100.00
70206;BME280;57593;55.896;37.396;2022-12-20T00:45:18;100446.34;;;-3.17;100.00
70206;BME280;57593;55.896;37.396;2022-12-20T00:45:49;100448.63;;;-3.27;100.00
70206;BME280;57593;55.896;37.396;2022-12-20T00:46:20;100445.72;;;-3.37;100.00
70206;BME280;57593;55.896;37.396;2022-12-20T00:46:52;100441.34;;;-3.37;100.00
70206;BME280;57593;55.896;37.396;2022-12-20T00:47:23;100441.72;;;-3.33;100.00
70206;BME280;57593;55.896;37.396;2022-12-20T00:47:54;100446.34;;;-3.42;100.00
70206;BME280;57593;55.896;37.396;2022-12-20T00:48:25;100459.63;;;-3.38;100.00
70206;BME280;57593;55.896;37.396;2022-12-20T00:48:56;100439.38;;;-3.41;100.00
70206;BME280;57593;55.896;37.396;2022-12-20T00:49:27;100442.34;;;-3.38;100.00
70206;BME280;57593;55.896;37.396;2022-12-20T00:49:57;100443.56;;;-3.40;100.00
70206;BME280;57593;55.896;37.396;2022-12-20T00:50:28;100444.13;;;-3.38;100.00
70206;BME280;57593;55.896;37.396;2022-12-20T00:51:01;100445.56;;;-3.42;100.00
70206;BME280;57593;55.896;37.396;2022-12-20T00:51:32;100445.16;;;-3.39;100.00
70206;BME280;57593;55.896;37.396;2022-12-20T00:52:03;100452.34;;;-3.48;100.00
70206;BME280;57593;55.896;37.396;2022-12-20T00:52:34;100450.34;;;-3.46;100.00
70206;BME280;57593;55.896;37.396;2022-12-20T00:53:04;100455.72;;;-3.48;100.00
70206;BME280;57593;55.896;37.396;2022-12-20T00:53:40;100437.69;;;-3.54;100.00
70206;BME280;57593;55.896;37.396;2022-12-20T00:54:11;100453.81;;;-3.59;100.00
70206;BME280;57593;55.896;37.396;2022-12-20T00:54:41;100446.84;;;-3.58;100.00
70206;BME280;57593;55.896;37.396;2022-12-20T00:55:12;100456.28;;;-3.71;100.00
70206;BME280;57593;55.896;37.396;2022-12-20T00:55:44;100439.47;;;-3.80;100.00
70206;BME280;57593;55.896;37.396;2022-12-20T00:56:15;100438.63;;;-3.74;100.00
70206;BME280;57593;55.896;37.396;2022-12-20T00:56:46;100444.53;;;-3.67;100.00
70206;BME280;57593;55.896;37.396;2022-12-20T00:57:17;100452.13;;;-3.72;100.00
70206;BME280;57593;55.896;37.396;2022-12-20T00:57:47;100445.63;;;-3.81;100.00
70206;BME280;57593;55.896;37.396;2022-12-20T00:58:18;100450.22;;;-3.83;100.00
70206;BME280;57593;55.896;37.396;2022-12-20T00:58:49;100425.38;;;-3.84;100.00
70206;BME280;57593;55.896;37.396;2022-12-20T00:59:20;100438.66;;;-3.81;100.00
70206;BME280;57593;55.896;37.396;2022-12-20T00:59:50;100442.41;;;-3.76;100.00
70206;BME280;57593;55.896;37.396;2022-12-20T01:00:21;100445.56;;;-3.74;100.00
70206;BME280;57593;55.896;37.396;2022-12-20T01:00:52;100447.41;;;-3.82;100.00
70206;BME280;57593;55.896;37.396;2022-12-20T01:01:25;100460.66;;;-3.71;100.00
70206;BME280;57593;55.896;37.396;2022-12-20T01:01:56;100444.78;;;-3.75;100.00
70206;BME280;57593;55.896;37.396;2022-12-20T01:02:27;100448.56;;;-3.77;100.00
70206;BME280;57593;55.896;37.396;2022-12-20T01:02:57;100441.25;;;-3.81;100.00
70206;BME280;57593;55.896;37.396;2022-12-20T01:03:28;100435.28;;;-3.81;100.00
70206;BME280;57593;55.896;37.396;2022-12-20T01:03:59;100439.47;;;-3.80;100.00
70206;BME280;57593;55.896;37.396;2022-12-20T01:04:30;100442.28;;;-3.88;100.00
70206;BME280;57593;55.896;37.396;2022-12-20T01:05:01;100445.03;;;-3.83;100.00
70206;BME280;57593;55.896;37.396;2022-12-20T01:05:31;100440.25;;;-3.80;100.00
70206;BME280;57593;55.896;37.396;2022-12-20T01:06:02;100436.69;;;-3.78;100.00
70206;BME280;57593;55.896;37.396;2022-12-20T01:06:33;100436.69;;;-3.78;100.00
70206;BME280;57593;55.896;37.396;2022-12-20T01:07:04;100440.34;;;-3.68;100.00
70206;BME280;57593;55.896;37.396;2022-12-20T01:07:34;100436.53;;;-3.58;100.00
70206;BME280;57593;55.896;37.396;2022-12-20T01:08:05;100428.78;;;-3.58;100.00
70206;BME280;57593;55.896;37.396;2022-12-20T01:08:36;100439.50;;;-3.55;100.00
70206;BME280;57593;55.896;37.396;2022-12-20T01:09:06;100445.28;;;-3.59;100.00
70206;BME280;57593;55.896;37.396;2022-12-20T01:09:38;100457.44;;;-3.67;100.00
70206;BME280;57593;55.896;37.396;2022-12-20T01:10:09;100450.69;;;-3.68;100.00
70206;BME280;57593;55.896;37.396;2022-12-20T01:10:40;100453.66;;;-3.64;100.00
70206;BME280;57593;55.896;37.396;2022-12-20T01:11:17;100457.03;;;-3.64;100.00
70206;BME280;57593;55.896;37.396;2022-12-20T01:11:48;100462.84;;;-3.75;100.00
70206;BME280;57593;55.896;37.396;2022-12-20T01:12:18;100449.38;;;-3.77;100.00
70206;BME280;57593;55.896;37.396;2022-12-20T01:12:49;100445.00;;;-3.76;100.00
70206;BME280;57593;55.896;37.396;2022-12-20T01:13:20;100441.22;;;-3.74;100.00
70206;BME280;57593;55.896;37.396;2022-12-20T01:13:52;100422.06;;;-3.59;100.00
70206;BME280;57593;55.896;37.396;2022-12-20T01:14:23;100414.25;;;-3.53;100.00
70206;BME280;57593;55.896;37.396;2022-12-20T01:14:54;100414.66;;;-3.31;100.00
70206;BME280;57593;55.896;37.396;2022-12-20T01:15:24;100430.75;;;-3.29;100.00
70206;BME280;57593;55.896;37.396;2022-12-20T01:15:55;100422.28;;;-3.36;100.00
70206;BME280;57593;55.896;37.396;2022-12-20T01:16:29;100430.28;;;-3.44;100.00
70206;BME280;57593;55.896;37.396;2022-12-20T01:17:00;100430.06;;;-3.42;100.00
70206;BME280;57593;55.896;37.396;2022-12-20T01:17:30;100426.47;;;-3.41;100.00
70206;BME280;57593;55.896;37.396;2022-12-20T01:18:01;100438.41;;;-3.40;100.00
70206;BME280;57593;55.896;37.396;2022-12-20T01:18:32;100442.78;;;-3.41;100.00
70206;BME280;57593;55.896;37.396;2022-12-20T01:19:03;100437.44;;;-3.46;100.00
70206;BME280;57593;55.896;37.396;2022-12-20T01:19:34;100447.47;;;-3.56;100.00
70206;BME280;57593;55.896;37.396;2022-12-20T01:20:05;100446.03;;;-3.52;100.00
70206;BME280;57593;55.896;37.396;2022-12-20T01:20:36;100438.91;;;-3.57;100.00
70206;BME280;57593;55.896;37.396;2022-12-20T01:21:10;100447.25;;;-3.55;100.00
70206;BME280;57593;55.896;37.396;2022-12-20T01:21:41;100438.13;;;-3.57;100.00
70206;BME280;57593;55.896;37.396;2022-12-20T01:22:14;100434.53;;;-3.56;100.00
70206;BME280;57593;55.896;37.396;2022-12-20T01:22:44;100429.78;;;-3.59;100.00
70206;BME280;57593;55.896;37.396;2022-12-20T01:23:15;100425.88;;;-3.69;100.00
70206;BME280;57593;55.896;37.396;2022-12-20T01:23:46;100426.88;;;-3.70;100.00
70206;BME280;57593;55.896;37.396;2022-12-20T01:24:18;100427.19;;;-3.85;100.00
70206;BME280;57593;55.896;37.396;2022-12-20T01:24:49;100433.19;;;-3.98;100.00
70206;BME280;57593;55.896;37.396;2022-12-20T01:25:20;100431.16;;;-3.89;100.00
70206;BME280;57593;55.896;37.396;2022-12-20T01:25:50;100429.91;;;-3.80;100.00
70206;BME280;57593;55.896;37.396;2022-12-20T01:26:24;100422.72;;;-3.71;100.00
70206;BME280;57593;55.896;37.396;2022-12-20T01:26:55;100418.72;;;-3.67;100.00
70206;BME280;57593;55.896;37.396;2022-12-20T01:27:27;100418.84;;;-3.55;100.00
70206;BME280;57593;55.896;37.396;2022-12-20T01:27:58;100414.19;;;-3.46;100.00
70206;BME280;57593;55.896;37.396;2022-12-20T01:28:29;100422.34;;;-3.49;100.00
70206;BME280;57593;55.896;37.396;2022-12-20T01:29:00;100428.16;;;-3.54;100.00
70206;BME280;57593;55.896;37.396;2022-12-20T01:29:30;100423.41;;;-3.57;100.00
70206;BME280;57593;55.896;37.396;2022-12-20T01:30:01;100440.28;;;-3.54;100.00
70206;BME280;57593;55.896;37.396;2022-12-20T01:30:32;100431.34;;;-3.58;100.00
70206;BME280;57593;55.896;37.396;2022-12-20T01:31:11;100437.03;;;-3.75;100.00
70206;BME280;57593;55.896;37.396;2022-12-20T01:31:42;100428.69;;;-3.70;100.00
70206;BME280;57593;55.896;37.396;2022-12-20T01:32:13;100437.78;;;-3.68;100.00
70206;BME280;57593;55.896;37.396;2022-12-20T01:32:44;100423.09;;;-3.67;100.00
70206;BME280;57593;55.896;37.396;2022-12-20T01:33:15;100436.63;;;-3.72;100.00
70206;BME280;57593;55.896;37.396;2022-12-20T01:33:46;100438.78;;;-3.69;100.00
70206;BME280;57593;55.896;37.396;2022-12-20T01:34:17;100431.41;;;-3.65;100.00
70206;BME280;57593;55.896;37.396;2022-12-20T01:34:48;100438.38;;;-3.66;100.00
70206;BME280;57593;55.896;37.396;2022-12-20T01:35:19;100442.22;;;-3.75;100.00
70206;BME280;57593;55.896;37.396;2022-12-20T01:36:01;100424.72;;;-3.73;100.00
70206;BME280;57593;55.896;37.396;2022-12-20T01:36:34;100441.16;;;-3.67;100.00
70206;BME280;57593;55.896;37.396;2022-12-20T01:37:05;100426.25;;;-3.65;100.00
70206;BME280;57593;55.896;37.396;2022-12-20T01:37:35;100429.31;;;-3.75;100.00
70206;BME280;57593;55.896;37.396;2022-12-20T01:38:06;100431.63;;;-3.67;100.00
70206;BME280;57593;55.896;37.396;2022-12-20T01:38:37;100430.63;;;-3.66;100.00
70206;BME280;57593;55.896;37.396;2022-12-20T01:39:11;100427.91;;;-3.71;100.00
70206;BME280;57593;55.896;37.396;2022-12-20T01:39:42;100432.63;;;-3.68;100.00
70206;BME280;57593;55.896;37.396;2022-12-20T01:40:13;100428.63;;;-3.64;100.00
70206;BME280;57593;55.896;37.396;2022-12-20T01:40:45;100430.63;;;-3.66;100.00
70206;BME280;57593;55.896;37.396;2022-12-20T01:41:18;100425.09;;;-3.69;100.00
70206;BME280;57593;55.896;37.396;2022-12-20T01:41:49;100429.25;;;-3.68;100.00
70206;BME280;57593;55.896;37.396;2022-12-20T01:42:20;100419.53;;;-3.73;100.00
70206;BME280;57593;55.896;37.396;2022-12-20T01:42:51;100426.31;;;-3.72;100.00
70206;BME280;57593;55.896;37.396;2022-12-20T01:43:22;100417.34;;;-3.69;100.00
70206;BME280;57593;55.896;37.396;2022-12-20T01:45:02;100427.72;;;-3.76;100.00
70206;BME280;57593;55.896;37.396;2022-12-20T01:45:37;100426.22;;;-3.90;100.00
70206;BME280;57593;55.896;37.396;2022-12-20T01:46:08;100419.84;;;-3.88;100.00
70206;BME280;57593;55.896;37.396;2022-12-20T01:46:39;100426.97;;;-3.83;100.00
70206;BME280;57593;55.896;37.396;2022-12-20T01:47:10;100428.34;;;-3.81;100.00
70206;BME280;57593;55.896;37.396;2022-12-20T01:47:41;100423.16;;;-3.74;100.00
70206;BME280;57593;55.896;37.396;2022-12-20T01:48:19;100425.72;;;-3.74;100.00
70206;BME280;57593;55.896;37.396;2022-12-20T01:48:52;100413.03;;;-3.75;100.00
70206;BME280;57593;55.896;37.396;2022-12-20T01:49:30;100432.63;;;-3.68;100.00
70206;BME280;57593;55.896;37.396;2022-12-20T01:50:03;100424.13;;;-3.75;100.00
70206;BME280;57593;55.896;37.396;2022-12-20T01:50:34;100432.47;;;-3.73;100.00
70206;BME280;57593;55.896;37.396;2022-12-20T01:51:05;100428.31;;;-3.74;100.00
70206;BME280;57593;55.896;37.396;2022-12-20T01:52:39;100407.03;;;-3.69;100.00
70206;BME280;57593;55.896;37.396;2022-12-20T01:53:12;100416.97;;;-3.73;100.00
70206;BME280;57593;55.896;37.396;2022-12-20T01:53:43;100412.31;;;-3.89;100.00
70206;BME280;57593;55.896;37.396;2022-12-20T01:54:17;100412.13;;;-3.88;100.00
70206;BME280;57593;55.896;37.396;2022-12-20T01:55:31;100408.69;;;-3.82;100.00
70206;BME280;57593;55.896;37.396;2022-12-20T01:56:04;100395.75;;;-3.75;100.00
70206;BME280;57593;55.896;37.396;2022-12-20T01:56:36;100403.31;;;-3.80;100.00
70206;BME280;57593;55.896;37.396;2022-12-20T01:57:18;100404.72;;;-3.84;100.00
70206;BME280;57593;55.896;37.396;2022-12-20T01:57:57;100401.78;;;-3.88;100.00
70206;BME280;57593;55.896;37.396;2022-12-20T01:58:29;100403.34;;;-3.87;100.00
70206;BME280;57593;55.896;37.396;2022-12-20T01:59:03;100405.94;;;-3.87;100.00
70206;BME280;57593;55.896;37.396;2022-12-20T01:59:36;100409.06;;;-3.78;100.00
70206;BME280;57593;55.896;37.396;2022-12-20T02:00:09;100401.59;;;-3.93;100.00
70206;BME280;57593;55.896;37.396;2022-12-20T02:00:46;100401.38;;;-3.91;100.00
70206;BME280;57593;55.896;37.396;2022-12-20T02:01:17;100393.84;;;-3.93;100.00
70206;BME280;57593;55.896;37.396;2022-12-20T02:01:47;100394.47;;;-3.91;100.00
70206;BME280;57593;55.896;37.396;2022-12-20T02:02:18;100392.50;;;-3.95;100.00
70206;BME280;57593;55.896;37.396;2022-12-20T02:02:49;100383.94;;;-3.96;100.00
70206;BME280;57593;55.896;37.396;2022-12-20T02:03:20;100395.03;;;-3.89;100.00
70206;BME280;57593;55.896;37.396;2022-12-20T02:03:52;100400.00;;;-3.87;100.00
70206;BME280;57593;55.896;37.396;2022-12-20T02:04:24;100401.94;;;-3.83;100.00
70206;BME280;57593;55.896;37.396;2022-12-20T02:04:54;100395.41;;;-3.85;100.00
70206;BME280;57593;55.896;37.396;2022-12-20T02:05:25;100399.78;;;-3.86;100.00
70206;BME280;57593;55.896;37.396;2022-12-20T02:05:56;100401.56;;;-3.86;100.00
70206;BME280;57593;55.896;37.396;2022-12-20T02:06:27;100401.50;;;-4.11;100.00
70206;BME280;57593;55.896;37.396;2022-12-20T02:06:59;100398.09;;;-4.05;100.00
70206;BME280;57593;55.896;37.396;2022-12-20T02:07:32;100407.47;;;-4.18;100.00
70206;BME280;57593;55.896;37.396;2022-12-20T02:08:06;100388.03;;;-4.13;100.00
70206;BME280;57593;55.896;37.396;2022-12-20T02:08:38;100393.53;;;-4.03;100.00
70206;BME280;57593;55.896;37.396;2022-12-20T02:09:09;100389.91;;;-3.95;100.00
70206;BME280;57593;55.896;37.396;2022-12-20T02:09:40;100389.31;;;-3.98;100.00
70206;BME280;57593;55.896;37.396;2022-12-20T02:10:11;100367.84;;;-3.91;100.00
70206;BME280;57593;55.896;37.396;2022-12-20T02:11:08;100384.38;;;-3.99;100.00
70206;BME280;57593;55.896;37.396;2022-12-20T02:12:18;100381.78;;;-3.99;100.00
70206;BME280;57593;55.896;37.396;2022-12-20T02:12:55;100393.06;;;-3.93;100.00
70206;BME280;57593;55.896;37.396;2022-12-20T02:16:02;100380.34;;;-4.20;100.00
70206;BME280;57593;55.896;37.396;2022-12-20T02:16:44;100376.16;;;-4.21;100.00
70206;BME280;57593;55.896;37.396;2022-12-20T02:17:30;100383.31;;;-4.23;100.00
70206;BME280;57593;55.896;37.396;2022-12-20T02:18:33;100372.84;;;-4.28;100.00
70206;BME280;57593;55.896;37.396;2022-12-20T02:21:18;100370.88;;;-4.33;100.00
70206;BME280;57593;55.896;37.396;2022-12-20T02:22:15;100375.41;;;-4.28;100.00
70206;BME280;57593;55.896;37.396;2022-12-20T02:24:08;100378.81;;;-4.35;100.00
70206;BME280;57593;55.896;37.396;2022-12-20T02:25:49;100375.41;;;-4.28;100.00
70206;BME280;57593;55.896;37.396;2022-12-20T02:26:37;100371.03;;;-4.28;100.00
70206;BME280;57593;55.896;37.396;2022-12-20T02:29:24;100360.78;;;-4.35;100.00
70206;BME280;57593;55.896;37.396;2022-12-20T02:30:47;100355.81;;;-4.36;100.00
70206;BME280;57593;55.896;37.396;2022-12-20T02:31:30;100353.97;;;-4.29;100.00
70206;BME280;57593;55.896;37.396;2022-12-20T02:33:02;100348.41;;;-4.26;100.00
70206;BME280;57593;55.896;37.396;2022-12-20T02:33:34;100359.94;;;-4.28;100.00
70206;BME280;57593;55.896;37.396;2022-12-20T02:34:08;100358.34;;;-4.29;100.00
70206;BME280;57593;55.896;37.396;2022-12-20T02:34:41;100360.53;;;-4.26;100.00
70206;BME280;57593;55.896;37.396;2022-12-20T02:35:13;100350.97;;;-4.26;100.00
70206;BME280;57593;55.896;37.396;2022-12-20T02:35:44;100361.84;;;-4.17;100.00
70206;BME280;57593;55.896;37.396;2022-12-20T02:36:17;100357.47;;;-4.17;100.00
70206;BME280;57593;55.896;37.396;2022-12-20T02:36:50;100361.72;;;-4.29;100.00
70206;BME280;57593;55.896;37.396;2022-12-20T02:37:21;100353.97;;;-4.22;100.00
70206;BME280;57593;55.896;37.396;2022-12-20T02:37:55;100347.03;;;-4.28;100.00
70206;BME280;57593;55.896;37.396;2022-12-20T02:38:35;100352.22;;;-4.35;100.00
70206;BME280;57593;55.896;37.396;2022-12-20T02:39:11;100359.94;;;-4.28;100.00
70206;BME280;57593;55.896;37.396;2022-12-20T02:39:43;100351.81;;;-4.32;100.00
70206;BME280;57593;55.896;37.396;2022-12-20T02:40:18;100361.91;;;-4.30;100.00
70206;BME280;57593;55.896;37.396;2022-12-20T02:40:55;100337.75;;;-4.36;100.00
70206;BME280;57593;55.896;37.396;2022-12-20T02:41:38;100340.91;;;-4.34;100.00
70206;BME280;57593;55.896;37.396;2022-12-20T02:42:14;100331.28;;;-4.52;100.00
70206;BME280;57593;55.896;37.396;2022-12-20T02:42:50;100337.44;;;-4.53;100.00
70206;BME280;57593;55.896;37.396;2022-12-20T02:43:23;100340.19;;;-4.48;100.00
70206;BME280;57593;55.896;37.396;2022-12-20T02:44:17;100340.03;;;-4.53;100.00
70206;BME280;57593;55.896;37.396;2022-12-20T02:45:08;100346.00;;;-4.66;100.00
70206;BME280;57593;55.896;37.396;2022-12-20T02:45:45;100345.81;;;-4.64;100.00
70206;BME280;57593;55.896;37.396;2022-12-20T02:46:18;100337.66;;;-4.61;100.00
70206;BME280;57593;55.896;37.396;2022-12-20T02:46:51;100343.84;;;-4.62;100.00
70206;BME280;57593;55.896;37.396;2022-12-20T02:47:28;100339.13;;;-4.79;100.00
70206;BME280;57593;55.896;37.396;2022-12-20T02:48:07;100338.88;;;-4.71;100.00
70206;BME280;57593;55.896;37.396;2022-12-20T02:48:40;100333.19;;;-4.79;100.00
70206;BME280;57593;55.896;37.396;2022-12-20T02:49:15;100332.97;;;-4.78;100.00
70206;BME280;57593;55.896;37.396;2022-12-20T02:49:49;100340.28;;;-4.68;100.00
70206;BME280;57593;55.896;37.396;2022-12-20T02:50:24;100331.97;;;-4.70;100.00
70206;BME280;57593;55.896;37.396;2022-12-20T02:50:57;100334.91;;;-4.66;100.00
70206;BME280;57593;55.896;37.396;2022-12-20T02:51:31;100330.94;;;-4.69;100.00
70206;BME280;57593;55.896;37.396;2022-12-20T02:52:02;100329.38;;;-4.70;100.00
70206;BME280;57593;55.896;37.396;2022-12-20T02:52:34;100333.72;;;-4.71;100.00
70206;BME280;57593;55.896;37.396;2022-12-20T02:53:06;100333.53;;;-4.69;100.00
70206;BME280;57593;55.896;37.396;2022-12-20T02:53:37;100330.34;;;-4.64;100.00
70206;BME280;57593;55.896;37.396;2022-12-20T02:54:09;100329.94;;;-4.61;100.00
70206;BME280;57593;55.896;37.396;2022-12-20T02:54:39;100326.31;;;-4.54;100.00
70206;BME280;57593;55.896;37.396;2022-12-20T02:55:10;100327.97;;;-4.59;100.00
70206;BME280;57593;55.896;37.396;2022-12-20T02:55:53;100332.69;;;-4.56;100.00
70206;BME280;57593;55.896;37.396;2022-12-20T02:56:34;100330.66;;;-4.86;100.00
70206;BME280;57593;55.896;37.396;2022-12-20T02:57:49;100327.25;;;-4.80;100.00
70206;BME280;57593;55.896;37.396;2022-12-20T02:58:40;100319.31;;;-4.78;100.00
70206;BME280;57593;55.896;37.396;2022-12-20T02:59:22;100323.06;;;-4.74;100.00
70206;BME280;57593;55.896;37.396;2022-12-20T03:00:39;100334.53;;;-4.70;100.00
70206;BME280;57593;55.896;37.396;2022-12-20T03:01:18;100321.91;;;-4.78;100.00
70206;BME280;57593;55.896;37.396;2022-12-20T03:01:53;100317.53;;;-4.78;100.00
70206;BME280;57593;55.896;37.396;2022-12-20T03:02:25;100316.53;;;-4.77;100.00
70206;BME280;57593;55.896;37.396;2022-12-20T03:02:57;100319.31;;;-4.85;100.00